sensor_id;sensor_type;location;lat;lon;timestamp;pressure;altitude;pressure_sealevel;temperature;humidity
28267;BME280;15525;45.568;5.448;2023-02-04T00:00:20;99761.78;;;6.08;56.19
28267;BME280;15525;45.568;5.448;2023-02-04T00:02:45;99749.56;;;5.79;56.68
28267;BME280;15525;45.568;5.448;2023-02-04T00:05:11;99754.47;;;5.48;58.10
28267;BME280;15525;45.568;5.448;2023-02-04T00:07:38;99767.50;;;5.43;58.34
28267;BME280;15525;45.568;5.448;2023-02-04T00:10:04;99768.59;;;5.83;57.00
28267;BME280;15525;45.568;5.448;2023-02-04T00:12:30;99759.88;;;5.89;55.99
28267;BME280;15525;45.568;5.448;2023-02-04T00:14:56;99764.16;;;5.56;57.27
28267;BME280;15525;45.568;5.448;2023-02-04T00:17:21;99754.25;;;5.77;56.41
28267;BME280;15525;45.568;5.448;2023-02-04T00:19:46;99754.56;;;5.89;55.70
28267;BME280;15525;45.568;5.448;2023-02-04T00:22:12;99755.50;;;5.47;57.42
28267;BME280;15525;45.568;5.448;2023-02-04T00:24:37;99746.72;;;5.47;57.66
28267;BME280;15525;45.568;5.448;2023-02-04T00:27:04;99756.28;;;5.75;56.53
28267;BME280;15525;45.568;5.448;2023-02-04T00:29:30;99748.03;;;5.91;55.94
28267;BME280;15525;45.568;5.448;2023-02-04T00:31:55;99736.97;;;5.94;55.11
28267;BME280;15525;45.568;5.448;2023-02-04T00:34:21;99745.56;;;5.56;57.16
28267;BME280;15525;45.568;5.448;2023-02-04T00:36:47;99746.47;;;5.76;56.26
28267;BME280;15525;45.568;5.448;2023-02-04T00:39:12;99748.75;;;5.79;55.50
28267;BME280;15525;45.568;5.448;2023-02-04T00:41:38;99746.25;;;5.71;55.99
28267;BME280;15525;45.568;5.448;2023-02-04T00:44:03;99739.22;;;5.57;56.80
28267;BME280;15525;45.568;5.448;2023-02-04T00:46:29;99755.41;;;5.34;57.85
28267;BME280;15525;45.568;5.448;2023-02-04T00:48:54;99746.41;;;5.63;56.65
28267;BME280;15525;45.568;5.448;2023-02-04T00:51:19;99743.81;;;5.42;56.91
28267;BME280;15525;45.568;5.448;2023-02-04T00:53:45;99745.38;;;5.64;56.25
28267;BME280;15525;45.568;5.448;2023-02-04T00:56:10;99733.13;;;5.63;56.01
28267;BME280;15525;45.568;5.448;2023-02-04T00:58:36;99718.88;;;5.36;57.10
28267;BME280;15525;45.568;5.448;2023-02-04T01:01:02;99725.25;;;5.48;56.41
28267;BME280;15525;45.568;5.448;2023-02-04T01:03:27;99725.53;;;5.60;56.12
28267;BME280;15525;45.568;5.448;2023-02-04T01:05:53;99724.28;;;5.49;56.19
28267;BME280;15525;45.568;5.448;2023-02-04T01:08:18;99721.94;;;5.40;56.49
28267;BME280;15525;45.568;5.448;2023-02-04T01:10:44;99726.47;;;5.46;56.18
28267;BME280;15525;45.568;5.448;2023-02-04T01:13:09;99726.75;;;4.75;59.05
28267;BME280;15525;45.568;5.448;2023-02-04T01:15:34;99736.66;;;4.87;58.47
28267;BME280;15525;45.568;5.448;2023-02-04T01:18:00;99731.16;;;4.89;58.93
28267;BME280;15525;45.568;5.448;2023-02-04T01:20:26;99732.38;;;5.14;58.06
28267;BME280;15525;45.568;5.448;2023-02-04T01:22:51;99734.56;;;5.31;57.04
28267;BME280;15525;45.568;5.448;2023-02-04T01:25:17;99730.66;;;5.27;56.52
28267;BME280;15525;45.568;5.448;2023-02-04T01:27:43;99736.16;;;5.26;57.12
28267;BME280;15525;45.568;5.448;2023-02-04T01:30:10;99729.41;;;4.75;58.66
28267;BME280;15525;45.568;5.448;2023-02-04T01:32:36;99737.50;;;4.88;58.59
28267;BME280;15525;45.568;5.448;2023-02-04T01:35:02;99735.13;;;4.99;57.80
28267;BME280;15525;45.568;5.448;2023-02-04T01:37:28;99736.78;;;5.00;57.75
28267;BME280;15525;45.568;5.448;2023-02-04T01:39:53;99727.84;;;5.08;56.88
28267;BME280;15525;45.568;5.448;2023-02-04T01:42:19;99732.44;;;4.93;57.80
28267;BME280;15525;45.568;5.448;2023-02-04T01:44:45;99723.69;;;4.99;57.34
28267;BME280;15525;45.568;5.448;2023-02-04T01:47:10;99732.56;;;4.64;58.52
28267;BME280;15525;45.568;5.448;2023-02-04T01:49:36;99730.50;;;4.80;57.75
28267;BME280;15525;45.568;5.448;2023-02-04T01:52:02;99720.75;;;4.66;57.73
28267;BME280;15525;45.568;5.448;2023-02-04T01:54:28;99715.38;;;4.81;58.10
28267;BME280;15525;45.568;5.448;2023-02-04T01:56:54;99718.75;;;4.96;57.14
28267;BME280;15525;45.568;5.448;2023-02-04T01:59:20;99703.09;;;5.01;56.68
28267;BME280;15525;45.568;5.448;2023-02-04T02:01:48;99706.63;;;5.08;56.18
28267;BME280;15525;45.568;5.448;2023-02-04T02:04:17;99707.88;;;5.12;55.93
28267;BME280;15525;45.568;5.448;2023-02-04T02:06:52;99692.75;;;5.06;55.96
28267;BME280;15525;45.568;5.448;2023-02-04T02:09:19;99699.72;;;4.86;56.31
28267;BME280;15525;45.568;5.448;2023-02-04T02:11:45;99695.13;;;5.01;55.91
28267;BME280;15525;45.568;5.448;2023-02-04T02:14:12;99690.84;;;5.00;56.13
28267;BME280;15525;45.568;5.448;2023-02-04T02:16:37;99696.19;;;5.06;55.96
28267;BME280;15525;45.568;5.448;2023-02-04T02:19:04;99694.50;;;4.99;55.72
28267;BME280;15525;45.568;5.448;2023-02-04T02:21:38;99693.31;;;5.01;55.29
28267;BME280;15525;45.568;5.448;2023-02-04T02:24:26;99683.34;;;5.03;55.24
28267;BME280;15525;45.568;5.448;2023-02-04T02:26:53;99682.88;;;5.00;55.79
28267;BME280;15525;45.568;5.448;2023-02-04T02:29:19;99680.22;;;5.00;55.46
28267;BME280;15525;45.568;5.448;2023-02-04T02:31:45;99688.28;;;4.85;56.44
28267;BME280;15525;45.568;5.448;2023-02-04T02:34:11;99660.69;;;4.80;56.20
28267;BME280;15525;45.568;5.448;2023-02-04T02:36:36;99668.25;;;4.13;59.08
28267;BME280;15525;45.568;5.448;2023-02-04T02:39:02;99673.28;;;4.29;58.21
28267;BME280;15525;45.568;5.448;2023-02-04T02:41:28;99677.63;;;4.58;57.31
28267;BME280;15525;45.568;5.448;2023-02-04T02:43:54;99681.94;;;4.59;57.62
28267;BME280;15525;45.568;5.448;2023-02-04T02:46:19;99668.34;;;4.68;56.81
28267;BME280;15525;45.568;5.448;2023-02-04T02:48:45;99672.94;;;4.81;56.74
28267;BME280;15525;45.568;5.448;2023-02-04T02:51:10;99680.38;;;4.92;56.79
28267;BME280;15525;45.568;5.448;2023-02-04T02:53:36;99679.59;;;4.98;56.42
28267;BME280;15525;45.568;5.448;2023-02-04T02:56:01;99675.41;;;4.82;56.05
28267;BME280;15525;45.568;5.448;2023-02-04T02:58:30;99675.19;;;4.56;57.25
28267;BME280;15525;45.568;5.448;2023-02-04T03:00:58;99688.69;;;4.61;57.79
28267;BME280;15525;45.568;5.448;2023-02-04T03:03:34;99694.63;;;4.63;57.08
28267;BME280;15525;45.568;5.448;2023-02-04T03:06:04;99682.31;;;4.56;56.97
28267;BME280;15525;45.568;5.448;2023-02-04T03:08:31;99680.53;;;4.63;56.80
28267;BME280;15525;45.568;5.448;2023-02-04T03:10:57;99691.25;;;4.76;56.20
28267;BME280;15525;45.568;5.448;2023-02-04T03:13:22;99675.13;;;4.50;57.37
28267;BME280;15525;45.568;5.448;2023-02-04T03:15:48;99665.72;;;4.68;56.53
28267;BME280;15525;45.568;5.448;2023-02-04T03:18:15;99660.50;;;4.81;56.00
28267;BME280;15525;45.568;5.448;2023-02-04T03:20:41;99667.25;;;4.84;56.25
28267;BME280;15525;45.568;5.448;2023-02-04T03:23:07;99660.56;;;4.88;55.79
28267;BME280;15525;45.568;5.448;2023-02-04T03:25:33;99666.06;;;4.86;55.50
28267;BME280;15525;45.568;5.448;2023-02-04T03:27:58;99669.00;;;4.49;57.68
28267;BME280;15525;45.568;5.448;2023-02-04T03:30:25;99676.00;;;4.57;56.53
28267;BME280;15525;45.568;5.448;2023-02-04T03:32:51;99677.75;;;4.50;57.07
28267;BME280;15525;45.568;5.448;2023-02-04T03:35:18;99677.50;;;4.45;57.22
28267;BME280;15525;45.568;5.448;2023-02-04T03:37:44;99673.09;;;4.52;57.14
28267;BME280;15525;45.568;5.448;2023-02-04T03:40:11;99664.06;;;4.04;59.03
28267;BME280;15525;45.568;5.448;2023-02-04T03:42:36;99666.84;;;4.38;57.71
28267;BME280;15525;45.568;5.448;2023-02-04T03:45:02;99678.06;;;4.61;56.59
28267;BME280;15525;45.568;5.448;2023-02-04T03:47:27;99670.63;;;4.71;55.94
28267;BME280;15525;45.568;5.448;2023-02-04T03:49:53;99654.91;;;4.70;55.70
28267;BME280;15525;45.568;5.448;2023-02-04T03:52:18;99661.84;;;4.71;55.89
28267;BME280;15525;45.568;5.448;2023-02-04T03:54:44;99650.81;;;4.67;55.81
28267;BME280;15525;45.568;5.448;2023-02-04T03:57:10;99650.63;;;4.48;56.64
28267;BME280;15525;45.568;5.448;2023-02-04T03:59:35;99656.81;;;4.13;58.15
28267;BME280;15525;45.568;5.448;2023-02-04T04:02:01;99662.81;;;4.42;57.64
28267;BME280;15525;45.568;5.448;2023-02-04T04:04:26;99668.19;;;4.49;56.98
28267;BME280;15525;45.568;5.448;2023-02-04T04:06:52;99670.03;;;4.48;56.46
28267;BME280;15525;45.568;5.448;2023-02-04T04:09:17;99662.44;;;4.45;56.17
28267;BME280;15525;45.568;5.448;2023-02-04T04:11:43;99680.28;;;4.58;56.55
28267;BME280;15525;45.568;5.448;2023-02-04T04:14:08;99669.81;;;4.50;56.70
28267;BME280;15525;45.568;5.448;2023-02-04T04:16:33;99666.41;;;4.35;57.12
28267;BME280;15525;45.568;5.448;2023-02-04T04:18:59;99663.25;;;4.46;56.94
28267;BME280;15525;45.568;5.448;2023-02-04T04:21:24;99660.34;;;4.41;56.76
28267;BME280;15525;45.568;5.448;2023-02-04T04:23:50;99663.81;;;4.20;58.10
28267;BME280;15525;45.568;5.448;2023-02-04T04:26:15;99664.28;;;4.24;57.60
28267;BME280;15525;45.568;5.448;2023-02-04T04:28:41;99648.28;;;3.61;59.77
28267;BME280;15525;45.568;5.448;2023-02-04T04:31:07;99671.94;;;3.98;59.00
28267;BME280;15525;45.568;5.448;2023-02-04T04:33:32;99664.75;;;3.92;58.83
28267;BME280;15525;45.568;5.448;2023-02-04T04:35:58;99662.91;;;3.92;59.34
28267;BME280;15525;45.568;5.448;2023-02-04T04:38:23;99653.16;;;4.14;57.99
28267;BME280;15525;45.568;5.448;2023-02-04T04:40:48;99663.38;;;4.17;57.15
28267;BME280;15525;45.568;5.448;2023-02-04T04:43:14;99664.03;;;4.19;57.28
28267;BME280;15525;45.568;5.448;2023-02-04T04:45:39;99672.28;;;3.59;59.80
28267;BME280;15525;45.568;5.448;2023-02-04T04:48:05;99652.53;;;4.12;58.09
28267;BME280;15525;45.568;5.448;2023-02-04T04:50:30;99670.63;;;4.29;57.55
28267;BME280;15525;45.568;5.448;2023-02-04T04:52:55;99674.75;;;3.61;59.60
28267;BME280;15525;45.568;5.448;2023-02-04T04:55:21;99675.25;;;4.21;57.66
28267;BME280;15525;45.568;5.448;2023-02-04T04:57:46;99665.91;;;4.25;57.00
28267;BME280;15525;45.568;5.448;2023-02-04T05:00:17;99654.03;;;4.00;57.83
28267;BME280;15525;45.568;5.448;2023-02-04T05:02:43;99657.13;;;4.03;58.62
28267;BME280;15525;45.568;5.448;2023-02-04T05:05:09;99655.69;;;4.22;57.63
28267;BME280;15525;45.568;5.448;2023-02-04T05:07:35;99654.75;;;4.08;57.71
28267;BME280;15525;45.568;5.448;2023-02-04T05:10:01;99656.31;;;4.03;57.98
28267;BME280;15525;45.568;5.448;2023-02-04T05:12:26;99656.31;;;3.67;59.75
28267;BME280;15525;45.568;5.448;2023-02-04T05:14:51;99660.47;;;4.12;58.21
28267;BME280;15525;45.568;5.448;2023-02-04T05:17:17;99659.75;;;3.68;59.28
28267;BME280;15525;45.568;5.448;2023-02-04T05:19:43;99669.84;;;3.93;58.75
28267;BME280;15525;45.568;5.448;2023-02-04T05:22:08;99668.38;;;4.26;57.50
28267;BME280;15525;45.568;5.448;2023-02-04T05:24:33;99659.91;;;4.37;56.58
28267;BME280;15525;45.568;5.448;2023-02-04T05:26:59;99653.94;;;4.29;56.65
28267;BME280;15525;45.568;5.448;2023-02-04T05:29:24;99659.72;;;4.39;56.40
28267;BME280;15525;45.568;5.448;2023-02-04T05:31:50;99652.81;;;4.02;57.58
28267;BME280;15525;45.568;5.448;2023-02-04T05:34:15;99659.09;;;4.16;57.75
28267;BME280;15525;45.568;5.448;2023-02-04T05:36:41;99658.84;;;4.32;57.04
28267;BME280;15525;45.568;5.448;2023-02-04T05:39:06;99648.59;;;4.50;56.75
28267;BME280;15525;45.568;5.448;2023-02-04T05:41:31;99654.44;;;4.60;56.24
28267;BME280;15525;45.568;5.448;2023-02-04T05:43:57;99659.84;;;4.31;57.50
28267;BME280;15525;45.568;5.448;2023-02-04T05:46:22;99660.88;;;4.51;57.51
28267;BME280;15525;45.568;5.448;2023-02-04T05:48:48;99668.13;;;4.42;57.85
28267;BME280;15525;45.568;5.448;2023-02-04T05:51:13;99667.81;;;4.52;57.78
28267;BME280;15525;45.568;5.448;2023-02-04T05:53:38;99654.44;;;4.66;57.31
28267;BME280;15525;45.568;5.448;2023-02-04T05:56:04;99648.44;;;4.30;58.85
28267;BME280;15525;45.568;5.448;2023-02-04T05:58:29;99656.78;;;4.48;59.02
28267;BME280;15525;45.568;5.448;2023-02-04T06:01:01;99660.09;;;4.84;57.93
28267;BME280;15525;45.568;5.448;2023-02-04T06:03:27;99651.63;;;4.68;58.34
28267;BME280;15525;45.568;5.448;2023-02-04T06:05:53;99650.69;;;4.33;59.67
28267;BME280;15525;45.568;5.448;2023-02-04T06:08:19;99668.91;;;4.85;58.97
28267;BME280;15525;45.568;5.448;2023-02-04T06:10:45;99676.44;;;4.81;59.22
28267;BME280;15525;45.568;5.448;2023-02-04T06:13:10;99660.06;;;5.05;58.69
28267;BME280;15525;45.568;5.448;2023-02-04T06:15:36;99669.91;;;5.11;58.80
28267;BME280;15525;45.568;5.448;2023-02-04T06:18:01;99668.94;;;4.43;60.93
28267;BME280;15525;45.568;5.448;2023-02-04T06:20:27;99670.88;;;4.13;61.87
28267;BME280;15525;45.568;5.448;2023-02-04T06:22:52;99663.31;;;3.75;63.88
28267;BME280;15525;45.568;5.448;2023-02-04T06:25:19;99667.19;;;4.29;62.47
28267;BME280;15525;45.568;5.448;2023-02-04T06:27:45;99688.38;;;4.71;61.45
28267;BME280;15525;45.568;5.448;2023-02-04T06:30:10;99655.66;;;5.19;59.99
28267;BME280;15525;45.568;5.448;2023-02-04T06:32:36;99664.16;;;5.35;59.15
28267;BME280;15525;45.568;5.448;2023-02-04T06:35:01;99673.28;;;4.99;60.38
28267;BME280;15525;45.568;5.448;2023-02-04T06:37:27;99670.06;;;5.37;59.61
28267;BME280;15525;45.568;5.448;2023-02-04T06:39:52;99671.47;;;4.99;60.37
28267;BME280;15525;45.568;5.448;2023-02-04T06:42:19;99681.34;;;5.46;59.54
28267;BME280;15525;45.568;5.448;2023-02-04T06:44:45;99684.47;;;5.56;59.75
28267;BME280;15525;45.568;5.448;2023-02-04T06:47:10;99686.41;;;5.75;59.25
28267;BME280;15525;45.568;5.448;2023-02-04T06:49:36;99690.84;;;5.27;60.79
28267;BME280;15525;45.568;5.448;2023-02-04T06:52:02;99679.63;;;5.66;59.73
28267;BME280;15525;45.568;5.448;2023-02-04T06:54:27;99691.88;;;5.67;60.17
28267;BME280;15525;45.568;5.448;2023-02-04T06:56:52;99702.56;;;5.46;61.09
28267;BME280;15525;45.568;5.448;2023-02-04T06:59:18;99694.16;;;5.70;60.49
28267;BME280;15525;45.568;5.448;2023-02-04T07:01:43;99694.69;;;5.93;59.85
28267;BME280;15525;45.568;5.448;2023-02-04T07:04:09;99694.84;;;5.85;60.36
28267;BME280;15525;45.568;5.448;2023-02-04T07:06:34;99699.78;;;5.88;60.73
28267;BME280;15525;45.568;5.448;2023-02-04T07:09:00;99703.59;;;5.79;60.66
28267;BME280;15525;45.568;5.448;2023-02-04T07:11:25;99691.88;;;5.67;60.78
28267;BME280;15525;45.568;5.448;2023-02-04T07:13:51;99711.44;;;5.93;60.40
28267;BME280;15525;45.568;5.448;2023-02-04T07:16:16;99698.53;;;5.84;61.45
28267;BME280;15525;45.568;5.448;2023-02-04T07:18:41;99697.59;;;6.17;60.56
28267;BME280;15525;45.568;5.448;2023-02-04T07:21:07;99696.44;;;5.79;62.30
28267;BME280;15525;45.568;5.448;2023-02-04T07:23:32;99696.00;;;6.23;60.50
28267;BME280;15525;45.568;5.448;2023-02-04T07:25:58;99703.50;;;6.06;61.35
28267;BME280;15525;45.568;5.448;2023-02-04T07:28:23;99698.53;;;6.50;59.99
28267;BME280;15525;45.568;5.448;2023-02-04T07:30:49;99702.84;;;6.58;59.61
28267;BME280;15525;45.568;5.448;2023-02-04T07:33:14;99708.97;;;6.52;59.77
28267;BME280;15525;45.568;5.448;2023-02-04T07:35:40;99701.41;;;6.62;59.46
28267;BME280;15525;45.568;5.448;2023-02-04T07:38:05;99715.53;;;6.75;58.85
28267;BME280;15525;45.568;5.448;2023-02-04T07:40:31;99707.53;;;6.62;59.33
28267;BME280;15525;45.568;5.448;2023-02-04T07:42:56;99709.81;;;6.85;59.15
28267;BME280;15525;45.568;5.448;2023-02-04T07:45:22;99709.16;;;6.50;60.38
28267;BME280;15525;45.568;5.448;2023-02-04T07:47:48;99697.13;;;6.87;59.38
28267;BME280;15525;45.568;5.448;2023-02-04T07:50:13;99701.00;;;6.84;60.00
28267;BME280;15525;45.568;5.448;2023-02-04T07:52:40;99687.31;;;6.94;59.00
28267;BME280;15525;45.568;5.448;2023-02-04T07:55:05;99699.38;;;7.03;59.61
28267;BME280;15525;45.568;5.448;2023-02-04T07:57:31;99698.16;;;7.12;58.17
28267;BME280;15525;45.568;5.448;2023-02-04T07:59:56;99703.25;;;7.20;58.42
28267;BME280;15525;45.568;5.448;2023-02-04T08:02:22;99694.66;;;7.24;58.09
28267;BME280;15525;45.568;5.448;2023-02-04T08:04:47;99699.13;;;7.30;58.63
28267;BME280;15525;45.568;5.448;2023-02-04T08:07:13;99707.75;;;7.39;58.19
28267;BME280;15525;45.568;5.448;2023-02-04T08:09:38;99698.09;;;7.38;58.07
28267;BME280;15525;45.568;5.448;2023-02-04T08:12:04;99697.47;;;7.49;58.00
28267;BME280;15525;45.568;5.448;2023-02-04T08:14:29;99707.28;;;7.55;58.70
28267;BME280;15525;45.568;5.448;2023-02-04T08:16:55;99699.47;;;7.66;58.03
28267;BME280;15525;45.568;5.448;2023-02-04T08:19:21;99691.88;;;7.63;58.51
28267;BME280;15525;45.568;5.448;2023-02-04T08:21:47;99683.28;;;7.68;58.46
28267;BME280;15525;45.568;5.448;2023-02-04T08:24:14;99684.28;;;7.73;58.03
28267;BME280;15525;45.568;5.448;2023-02-04T08:26:41;99704.56;;;7.81;58.20
28267;BME280;15525;45.568;5.448;2023-02-04T08:29:06;99699.81;;;7.83;59.06
28267;BME280;15525;45.568;5.448;2023-02-04T08:31:32;99700.19;;;7.93;58.92
28267;BME280;15525;45.568;5.448;2023-02-04T08:33:57;99700.19;;;7.93;58.64
28267;BME280;15525;45.568;5.448;2023-02-04T08:36:23;99701.75;;;8.07;58.99
28267;BME280;15525;45.568;5.448;2023-02-04T08:38:48;99693.41;;;7.97;59.10
28267;BME280;15525;45.568;5.448;2023-02-04T08:41:13;99701.16;;;8.05;59.23
28267;BME280;15525;45.568;5.448;2023-02-04T08:43:39;99705.25;;;8.20;58.71
28267;BME280;15525;45.568;5.448;2023-02-04T08:46:05;99702.53;;;8.27;58.95
28267;BME280;15525;45.568;5.448;2023-02-04T08:48:30;99707.00;;;8.33;59.20
28267;BME280;15525;45.568;5.448;2023-02-04T08:50:55;99701.81;;;8.44;58.61
28267;BME280;15525;45.568;5.448;2023-02-04T08:53:21;99709.78;;;8.51;57.87
28267;BME280;15525;45.568;5.448;2023-02-04T08:55:46;99706.25;;;8.26;60.93
28267;BME280;15525;45.568;5.448;2023-02-04T08:58:12;99702.81;;;8.50;60.09
28267;BME280;15525;45.568;5.448;2023-02-04T09:00:37;99707.69;;;8.53;59.79
28267;BME280;15525;45.568;5.448;2023-02-04T09:03:02;99702.94;;;8.17;62.30
28267;BME280;15525;45.568;5.448;2023-02-04T09:05:28;99688.44;;;8.51;61.38
28267;BME280;15525;45.568;5.448;2023-02-04T09:07:53;99694.75;;;8.87;60.76
28267;BME280;15525;45.568;5.448;2023-02-04T09:10:19;99701.69;;;8.95;60.51
28267;BME280;15525;45.568;5.448;2023-02-04T09:12:44;99702.78;;;9.05;59.23
28267;BME280;15525;45.568;5.448;2023-02-04T09:15:11;99707.44;;;8.92;60.91
28267;BME280;15525;45.568;5.448;2023-02-04T09:17:36;99705.19;;;9.13;60.12
28267;BME280;15525;45.568;5.448;2023-02-04T09:20:03;99701.72;;;9.13;60.62
28267;BME280;15525;45.568;5.448;2023-02-04T09:22:29;99691.78;;;8.95;61.74
28267;BME280;15525;45.568;5.448;2023-02-04T09:24:55;99707.34;;;9.05;61.88
28267;BME280;15525;45.568;5.448;2023-02-04T09:27:20;99709.56;;;8.83;63.83
28267;BME280;15525;45.568;5.448;2023-02-04T09:29:46;99708.81;;;8.39;64.63
28267;BME280;15525;45.568;5.448;2023-02-04T09:32:11;99708.66;;;8.96;64.72
28267;BME280;15525;45.568;5.448;2023-02-04T09:34:37;99712.66;;;9.29;64.52
28267;BME280;15525;45.568;5.448;2023-02-04T09:37:02;99705.47;;;9.30;64.30
28267;BME280;15525;45.568;5.448;2023-02-04T09:39:27;99717.03;;;8.99;65.89
28267;BME280;15525;45.568;5.448;2023-02-04T09:41:53;99708.91;;;9.37;64.34
28267;BME280;15525;45.568;5.448;2023-02-04T09:44:20;99718.31;;;9.82;63.18
28267;BME280;15525;45.568;5.448;2023-02-04T09:46:51;99729.34;;;9.00;66.05
28267;BME280;15525;45.568;5.448;2023-02-04T09:49:17;99715.75;;;9.51;64.73
28267;BME280;15525;45.568;5.448;2023-02-04T09:51:44;99728.53;;;9.67;64.76
28267;BME280;15525;45.568;5.448;2023-02-04T09:54:18;99720.66;;;9.54;65.13
28267;BME280;15525;45.568;5.448;2023-02-04T09:56:45;99717.63;;;9.26;65.79
28267;BME280;15525;45.568;5.448;2023-02-04T09:59:19;99722.97;;;9.26;65.94
28267;BME280;15525;45.568;5.448;2023-02-04T10:02:00;99726.97;;;9.95;64.30
28267;BME280;15525;45.568;5.448;2023-02-04T10:04:26;99725.00;;;10.27;63.79
28267;BME280;15525;45.568;5.448;2023-02-04T10:06:52;99731.81;;;10.41;62.97
28267;BME280;15525;45.568;5.448;2023-02-04T10:09:17;99742.84;;;10.15;63.61
28267;BME280;15525;45.568;5.448;2023-02-04T10:11:46;99725.63;;;10.40;63.15
28267;BME280;15525;45.568;5.448;2023-02-04T10:14:15;99725.34;;;10.60;62.69
28267;BME280;15525;45.568;5.448;2023-02-04T10:16:45;99742.31;;;10.54;62.89
28267;BME280;15525;45.568;5.448;2023-02-04T10:19:14;99739.97;;;10.75;62.31
28267;BME280;15525;45.568;5.448;2023-02-04T10:21:42;99742.25;;;10.42;63.59
28267;BME280;15525;45.568;5.448;2023-02-04T10:24:17;99736.31;;;10.70;62.85
28267;BME280;15525;45.568;5.448;2023-02-04T10:26:43;99737.03;;;10.18;64.16
28267;BME280;15525;45.568;5.448;2023-02-04T10:29:18;99740.13;;;10.33;63.38
28267;BME280;15525;45.568;5.448;2023-02-04T10:31:48;99734.19;;;10.31;63.45
28267;BME280;15525;45.568;5.448;2023-02-04T10:34:32;99737.50;;;10.74;63.15
28267;BME280;15525;45.568;5.448;2023-02-04T10:36:58;99734.91;;;10.67;63.30
28267;BME280;15525;45.568;5.448;2023-02-04T10:39:28;99733.41;;;11.24;61.86
28267;BME280;15525;45.568;5.448;2023-02-04T10:41:59;99728.03;;;11.01;62.80
28267;BME280;15525;45.568;5.448;2023-02-04T10:44:30;99725.44;;;10.24;63.66
28267;BME280;15525;45.568;5.448;2023-02-04T10:47:15;99735.28;;;10.71;63.44
28267;BME280;15525;45.568;5.448;2023-02-04T10:50:16;99724.16;;;10.56;63.19
28267;BME280;15525;45.568;5.448;2023-02-04T10:52:44;99722.06;;;10.58;63.73
28267;BME280;15525;45.568;5.448;2023-02-04T10:55:14;99705.78;;;11.23;62.14
28267;BME280;15525;45.568;5.448;2023-02-04T10:57:42;99714.06;;;11.22;61.68
28267;BME280;15525;45.568;5.448;2023-02-04T11:00:19;99703.94;;;11.35;61.74
28267;BME280;15525;45.568;5.448;2023-02-04T11:05:17;99706.53;;;11.65;61.03
28267;BME280;15525;45.568;5.448;2023-02-04T11:07:44;99701.78;;;11.95;60.38
28267;BME280;15525;45.568;5.448;2023-02-04T11:10:16;99696.13;;;11.80;60.69
28267;BME280;15525;45.568;5.448;2023-02-04T11:12:59;99699.16;;;11.72;61.43
28267;BME280;15525;45.568;5.448;2023-02-04T11:18:25;99685.06;;;12.44;59.17
28267;BME280;15525;45.568;5.448;2023-02-04T11:20:57;99680.31;;;12.63;58.83
28267;BME280;15525;45.568;5.448;2023-02-04T11:26:10;99667.13;;;12.61;58.20
28267;BME280;15525;45.568;5.448;2023-02-04T11:33:46;99671.22;;;12.36;59.81
28267;BME280;15525;45.568;5.448;2023-02-04T11:36:14;99664.25;;;12.23;59.39
28267;BME280;15525;45.568;5.448;2023-02-04T11:38:49;99653.00;;;12.54;59.51
28267;BME280;15525;45.568;5.448;2023-02-04T11:41:27;99655.19;;;13.02;58.12
28267;BME280;15525;45.568;5.448;2023-02-04T11:43:54;99653.56;;;12.40;59.20
28267;BME280;15525;45.568;5.448;2023-02-04T11:46:20;99656.94;;;12.80;58.68
28267;BME280;15525;45.568;5.448;2023-02-04T11:48:51;99651.66;;;12.24;60.00
28267;BME280;15525;45.568;5.448;2023-02-04T11:51:20;99642.22;;;12.99;58.26
28267;BME280;15525;45.568;5.448;2023-02-04T11:53:51;99640.78;;;13.46;57.57
28267;BME280;15525;45.568;5.448;2023-02-04T11:56:20;99630.38;;;13.33;56.88
28267;BME280;15525;45.568;5.448;2023-02-04T11:58:47;99627.22;;;12.53;59.07
28267;BME280;15525;45.568;5.448;2023-02-04T12:01:20;99631.22;;;12.67;58.97
28267;BME280;15525;45.568;5.448;2023-02-04T12:03:48;99625.38;;;13.03;58.21
28267;BME280;15525;45.568;5.448;2023-02-04T12:06:28;99625.91;;;12.72;58.73
28267;BME280;15525;45.568;5.448;2023-02-04T12:11:59;99612.63;;;12.82;58.75
28267;BME280;15525;45.568;5.448;2023-02-04T12:14:32;99608.59;;;13.72;57.39
28267;BME280;15525;45.568;5.448;2023-02-04T12:16:58;99605.41;;;14.23;56.53
28267;BME280;15525;45.568;5.448;2023-02-04T12:19:23;99612.44;;;14.51;55.06
28267;BME280;15525;45.568;5.448;2023-02-04T12:21:49;99604.59;;;14.49;55.21
28267;BME280;15525;45.568;5.448;2023-02-04T12:24:15;99598.91;;;13.98;56.20
28267;BME280;15525;45.568;5.448;2023-02-04T12:26:40;99589.34;;;14.96;54.05
28267;BME280;15525;45.568;5.448;2023-02-04T12:29:06;99586.78;;;15.16;52.80
28267;BME280;15525;45.568;5.448;2023-02-04T12:31:32;99573.38;;;15.31;53.59
28267;BME280;15525;45.568;5.448;2023-02-04T12:33:58;99572.03;;;15.29;53.18
28267;BME280;15525;45.568;5.448;2023-02-04T12:36:24;99575.41;;;15.09;53.83
28267;BME280;15525;45.568;5.448;2023-02-04T12:38:52;99574.41;;;15.25;53.08
28267;BME280;15525;45.568;5.448;2023-02-04T12:41:18;99573.91;;;14.24;55.25
28267;BME280;15525;45.568;5.448;2023-02-04T12:43:44;99568.75;;;13.96;56.41
28267;BME280;15525;45.568;5.448;2023-02-04T12:46:10;99572.06;;;14.92;53.97
28267;BME280;15525;45.568;5.448;2023-02-04T12:48:35;99554.06;;;15.49;52.70
28267;BME280;15525;45.568;5.448;2023-02-04T12:51:05;99549.19;;;15.46;52.31
28267;BME280;15525;45.568;5.448;2023-02-04T12:53:31;99540.81;;;15.38;52.03
28267;BME280;15525;45.568;5.448;2023-02-04T12:55:58;99550.91;;;15.67;52.36
28267;BME280;15525;45.568;5.448;2023-02-04T12:58:23;99546.38;;;15.26;53.00
28267;BME280;15525;45.568;5.448;2023-02-04T13:00:49;99555.84;;;14.51;54.03
28267;BME280;15525;45.568;5.448;2023-02-04T13:03:14;99550.44;;;14.87;53.58
28267;BME280;15525;45.568;5.448;2023-02-04T13:05:40;99552.72;;;15.05;54.07
28267;BME280;15525;45.568;5.448;2023-02-04T13:08:05;99541.44;;;14.35;55.32
28267;BME280;15525;45.568;5.448;2023-02-04T13:10:31;99551.81;;;14.00;56.37
28267;BME280;15525;45.568;5.448;2023-02-04T13:12:56;99544.63;;;14.64;55.67
28267;BME280;15525;45.568;5.448;2023-02-04T13:15:21;99541.09;;;15.41;53.79
28267;BME280;15525;45.568;5.448;2023-02-04T13:17:47;99534.44;;;15.12;54.01
28267;BME280;15525;45.568;5.448;2023-02-04T13:20:12;99546.03;;;14.71;54.38